createdAt,value
2022-10-19T22:00:06.303Z,7.7
2022-10-19T22:01:14.366Z,7.6
2022-10-19T22:02:22.439Z,7.6
2022-10-19T22:03:29.698Z,7.6
2022-10-19T22:04:36.956Z,7.6
2022-10-19T22:05:46.275Z,7.5
2022-10-19T22:06:54.246Z,7.5
2022-10-19T22:08:02.168Z,7.4
2022-10-19T22:09:11.048Z,7.4
2022-10-19T22:10:18.499Z,7.4
2022-10-19T22:11:25.763Z,7.3
2022-10-19T22:12:33.394Z,7.4
2022-10-19T22:13:42.216Z,7.3
2022-10-19T22:14:49.467Z,7.3
2022-10-19T22:15:56.767Z,7.3
2022-10-19T22:17:04.059Z,7.3
2022-10-19T22:18:12.019Z,7.2
2022-10-19T22:19:19.275Z,7.2
2022-10-19T22:20:26.535Z,7.1
2022-10-19T22:21:34.623Z,7.1
2022-10-19T22:22:42.030Z,7.1
2022-10-19T22:23:49.311Z,7.1
2022-10-19T22:24:56.566Z,7.1
2022-10-19T22:26:03.834Z,7
2022-10-19T22:27:11.812Z,7
2022-10-19T22:28:19.076Z,7
2022-10-19T22:29:26.344Z,6.9
2022-10-19T22:30:33.684Z,6.9
2022-10-19T22:31:41.734Z,6.9
2022-10-19T22:32:49.015Z,6.9
2022-10-19T22:33:56.283Z,6.9
2022-10-19T22:35:03.555Z,6.9
2022-10-19T22:36:10.824Z,6.8
2022-10-19T22:37:18.081Z,6.8
2022-10-19T22:38:25.348Z,6.8
2022-10-19T22:39:33.413Z,6.8
2022-10-19T22:40:40.773Z,6.8
2022-10-19T22:41:49.399Z,6.8
2022-10-19T22:42:56.659Z,6.8
2022-10-19T22:44:04.599Z,6.8
2022-10-19T22:45:12.757Z,6.8
2022-10-19T22:46:20.027Z,6.8
2022-10-19T22:47:27.345Z,6.8
2022-10-19T22:48:34.641Z,6.7
2022-10-19T22:49:42.636Z,6.7
2022-10-19T22:50:49.908Z,6.8
2022-10-19T22:51:57.178Z,6.7
2022-10-19T22:53:05.144Z,6.7
2022-10-19T22:54:13.455Z,6.7
2022-10-19T22:55:21.420Z,6.7
2022-10-19T22:56:29.390Z,6.7
2022-10-19T22:57:37.316Z,6.7
2022-10-19T22:58:44.587Z,6.6
2022-10-19T22:59:51.859Z,6.6
